Aviation Digital Data Service (ADDS)

Output produced by METARs form (1725 UTC 04 May 2016)
found at http://aviationweather.gov/adds/metars/
 
KCDW 041653Z 10010G17KT 2 1/2SM -RA BR OVC012 09/07 A2978 RMK AO2 RAB28 SLP090 P0000 T00940072
KMMU 041645Z 08012KT 10SM OVC010 10/09 A2978
KFWN 041653Z AUTO 07005KT 10SM OVC013 10/07 A2977 RMK AO2 SLP082 T01000072
KTEB 041651Z 07007G17KT 4SM OVC011 10/06 A2977 RMK AO2 SLP080 T01000061 $
KTEB 041612Z 0416/0512 07009G17KT 4SM BR OVC015 
     FM041800 06009KT 4SM -RA OVC015 
     FM042100 06009KT 4SM -RA BR OVC009 
     FM042300 06009G15KT 4SM -DZ BR BKN008
       
KEWR 041651Z 04008KT 7SM -DZ OVC013 12/09 A2977 RMK AO2 DZB48 SLP081 P0000 T01220094 $
KEWR 041612Z 0416/0518 06010KT P6SM OVC015 
     FM041800 06009KT 4SM -RA OVC012 
     TEMPO 0419/0421 BKN009 
     FM042100 06010G17KT 4SM -RA BR OVC009 
     FM050000 05010G17KT 5SM -DZ BR BKN006 OVC010 
     FM051300 03010G14KT 6SM -DZ BR BKN006 OVC010
       
KDXR 041653Z 10007KT 10SM OVC020 10/06 A2979 RMK AO2 SLP089 T01000056
KHPN 041656Z COR 09011G19KT 2 1/2SM BR BKN012 09/07 A2977 RMK AO2 SLP083 T00940067
KHPN 041126Z 0412/0512 VRB04KT 6SM -SHRA SCT010 OVC025 
     FM041400 08006KT 5SM -SHRA BR SCT010 OVC015 
     FM041700 08010G15KT 4SM -SHRA BR SCT006 OVC012 
     FM042300 06010G17KT 2SM -DZ BR SCT005 OVC008 AMD NOT SKED
       
KABE 041721Z 06006KT 1 1/2SM BR BKN007 BKN010 OVC019 12/09 A2975 RMK AO2 SFC VIS 4
KABE 041513Z 0415/0512 07006KT P6SM -SHRA OVC012 
     TEMPO 0415/0419 2SM SHRA BR OVC006 
     FM042300 05008KT 6SM -DZ BR OVC008
       
KAVP 041707Z 00000KT 3SM -RA BR SCT021 OVC029 11/09 A2974 RMK AO2 P0002 T01060089 $
KAVP 041336Z 0414/0512 07003KT P6SM -SHRA SCT015 OVC035 
     TEMPO 0414/0416 4SM -SHRA BR BKN015 
     FM041600 03003KT 6SM -SHRA OVC015 
     FM042300 07002KT 4SM BR OVC007
       
KSWF 041645Z 05008KT 6SM BR BKN009 OVC015 09/08 A2979
KSWF 041126Z 0412/0518 10006KT 3SM -SHRA BR BKN008 OVC012 
     FM041500 09008KT 4SM -SHRA BR FEW005 OVC010 
     FM050000 08010KT 3SM BR OVC006 AMD NOT SKED
       
KMSV 041715Z AUTO 11008KT 10SM FEW006 SCT012 BKN021 08/08 A2978 RMK AO1
KPOU 041653Z 01006KT 10SM OVC020 11/08 A2979 RMK AO2 SLP083 T01110078
KPOU 041622Z 0416/0512 03005KT P6SM VCSH BKN025 OVC035 
     TEMPO 0416/0420 5SM -RA BR BKN015 OVC025 
     FM050000 VRB04KT 2SM -DZ BR SCT004 OVC008 
     FM050400 35004KT 4SM BR VCSH OVC006
       
KACY 041719Z 04011KT 1SM +RA BR FEW006 SCT011 OVC022 09/09 A2969 RMK AO2 WSHFT 1645 RAE1656B04 P0014 T00940089
KACY 041627Z 0416/0512 06010KT 4SM -SHRA BR OVC005 
     TEMPO 0416/0420 2SM TSRA BR OVC002CB 
     FM042300 05010KT 2SM -DZ BR OVC004
       
KGON 041656Z 07009KT 10SM OVC022 11/09 A2981 RMK AO2 RAB43E55 SLP092 P0000 T01110094
KGON 041612Z 0416/0512 06011KT P6SM OVC025 
     TEMPO 0416/0418 4SM -RA BR OVC015 
     FM041900 07013G18KT P6SM OVC015 
     FM042100 06018G24KT 4SM -DZ BR OVC009 
     FM050400 04015G22KT 4SM -DZ BR OVC009
       


 (Extracted from FBUS31 KWNO 041359)
FD1US1
DATA BASED ON 041200Z    
VALID 041800Z   FOR USE 1400-2100Z. TEMPS NEG ABV 24000

FT  3000    6000    9000   12000   18000   24000  30000  34000  39000
BDL 0922 1719+04 1922-01 2233-07 2143-19 2367-31 711742 712651 720457
BGR 0808 2508+03 2221-01 2428-08 2340-19 2261-30 730843 722652 239257
CAR 9900 0707-03 2210-05 2217-10 2446-18 2350-32 237846 730852 238256
PWM 0717 2007+03 2021+00 2128-07 2245-18 2256-30 731043 722852 730357
EMI 1608 2013+03 2217-03 2219-08 2234-22 2353-31 217546 228150 227152
ACK 1116 1819+07 2021+01 2226-04 2257-15 2376-26 229541 710751 721063
BOS 0818 1614+04 2024+00 2125-06 2147-18 2372-29 720942 712651 721059
BML 1209 9900+00 2217-03 2324-09 2239-21 2249-32 720345 721852 228755
ACY 1609 1912+06 2119+00 2119-07 2247-19 7201-27 710942 701251 710157
ALB 1216 1611+02 1915-04 1922-08 2137-20 2147-33 710445 710251 228254
BUF 0606 1305+00 1807-07 2010-10 2120-23 2122-36 241550 223251 224049
JFK 1215 1914+05 2419-02 2127-06 2142-20 2295-29 711542 702051 720357
PLB 1414 1711+00 2010-05 2323-10 2234-21 2139-33 226348 227951 226352
SYR 0805 1810+01 1919-04 2119-10 2025-23 2033-34 204949 216250 215550
CLE 1713 1713+01 2014-05 2111-11 2512-23 2115-35 223052 232952 242848
CMH 2016 2017+01 2223-05 2424-10 2419-23 2222-35 223551 243350 253447
CVG 2720 2923+00 2827-05 2726-11 2430-25 2235-36 243247 263348 273648
AGC 9900 9900+01 2009-05 2117-10 2323-22 2426-34 234050 224451 234549
AVP 1212 1714+03 2214-03 2311-09 2134-21 2143-35 218744 218449 217052
PSB      1907+01 2208-04 2311-10 2326-23 2129-36 234447 225650 225350
ORF 2513 2321+07 2422+00 2437-04 2368-16 2279-26 218242 218352 228457
RIC 2405 2519+05 2526-02 2526-06 2451-17 2364-30 229744 229451 238154
ROA 2607 2610+03 2615-04 2523-06 2539-19 2452-32 246047 246250 236051
CRW 2307 2611+01 2715-05 2618-10 2531-21 2438-34 245249 245350 244749
EKN      2411+01 2212-04 2212-10 2427-21 2438-33 235149 235150 235350


 (Extracted from FBUS33 KWNO 041359)
FD3US3
DATA BASED ON 041200Z    
VALID 050000Z   FOR USE 2100-0600Z. TEMPS NEG ABV 24000

FT  3000    6000    9000   12000   18000   24000  30000  34000  39000
BDL 0926 2305+05 2109-01 2023-06 2133-20 2266-29 700543 700853 219357
BGR 0812 1306+03 1912-02 2118-07 2241-19 2158-30 721541 711751 721661
CAR 1005 1010-03 2417-04 2331-08 2431-21 2249-32 732342 724051 239758
PWM 0725 1310+04 2314-01 2120-06 2037-19 2268-29 711641 701851 720960
EMI 0807 2909+03 2712-02 2215-07 2333-20 2251-32 226346 216851 226952
ACK 1216 2012+07 2015+02 1919-04 2446-16 2172-25 197740 208752 229963
BOS 0720 2106+06 2009+00 1922-05 2139-19 2282-28 700641 700852 710561
BML 1112 0908+02 1913-03 2219-07 2236-21 2149-33 712043 703352 229256
ACY 3606 2705+05 2116+00 2123-05 2339-17 2254-30 710044 710451 228555
ALB 1020 9900+02 2007-03 2119-07 2225-21 2348-32 209645 209952 217354
BUF 0812 9900+01 2308-05 2106-09 2114-23 2216-35 212152 213152 213350
JFK 0815 9900+05 1913-01 2024-06 2335-18 2163-29 209944 710452 218756
PLB 1413 0906+00 9900-04 2012-09 2122-22 2128-35 217346 218450 226554
SYR 1415 1705+01 2205-03 2112-09 2218-23 2323-35 223949 215751 214851
CLE 1509 1318+00 1321-04 1418-10 1615-22 1616-36 192351 211751 221848
CMH 2920 2814-01 2611-05 2212-11 1724-24 1736-36 203049 232148 242147
CVG 3123 3127-02 2925-08 2923-13 2720-26 2722-37 282345 282646 292746
AGC 2006 2205+02 2106-04 2113-10 2511-22 2017-35 203449 214151 224050
AVP 1019 9900+03 1806-02 2016-07 2219-21 2241-33 216147 217152 226452
PSB      9900+02 9900-03 1907-09 2116-22 2130-34 214749 215551 225251
ORF 3010 2618+06 2422+00 2331-04 2337-17 2362-29 721942 711251 229456
RIC 1908 2414+05 2618-02 2523-05 2337-18 2348-31 228045 228650 227554
ROA 2608 2710+04 2920-03 2818-09 2429-21 2354-33 226647 226550 236051
CRW 2620 2722+01 2622-05 2424-10 2124-22 2232-36 234248 234149 243848
EKN      2510+03 2616-04 2617-09 2513-22 2227-35 224948 225350 225150